Metar z pełnej godziny Komunikat METAR ze strony awiacja.imgw.pl Metar G00 EPPO METAR EPPO 162200Z 13006KT 9999 OVC028 M02/M05 Q1017 R10/29//95 =